sensor_id;sensor_type;location;lat;lon;timestamp;P1;durP1;ratioP1;P2;durP2;ratioP2
72639;SDS011;60683;51.730;8.762;2022-11-15T00:00:03;8.65;;;4.32;;
72639;SDS011;60683;51.730;8.762;2022-11-15T00:02:53;8.32;;;4.60;;
72639;SDS011;60683;51.730;8.762;2022-11-15T00:05:21;8.63;;;4.25;;
72639;SDS011;60683;51.730;8.762;2022-11-15T00:07:50;7.85;;;3.30;;
72639;SDS011;60683;51.730;8.762;2022-11-15T00:10:17;7.95;;;4.10;;
72639;SDS011;60683;51.730;8.762;2022-11-15T00:12:45;8.35;;;4.15;;
72639;SDS011;60683;51.730;8.762;2022-11-15T00:15:12;12.95;;;4.65;;
72639;SDS011;60683;51.730;8.762;2022-11-15T00:17:39;11.50;;;4.65;;
72639;SDS011;60683;51.730;8.762;2022-11-15T00:20:09;10.05;;;4.63;;
72639;SDS011;60683;51.730;8.762;2022-11-15T00:22:37;10.32;;;5.05;;
72639;SDS011;60683;51.730;8.762;2022-11-15T00:25:06;9.63;;;4.80;;
72639;SDS011;60683;51.730;8.762;2022-11-15T00:27:33;8.93;;;4.43;;
72639;SDS011;60683;51.730;8.762;2022-11-15T00:30:01;11.10;;;4.85;;
72639;SDS011;60683;51.730;8.762;2022-11-15T00:32:30;7.97;;;4.25;;
72639;SDS011;60683;51.730;8.762;2022-11-15T00:34:58;9.98;;;5.00;;
72639;SDS011;60683;51.730;8.762;2022-11-15T00:37:26;9.43;;;5.13;;
72639;SDS011;60683;51.730;8.762;2022-11-15T00:39:54;8.63;;;5.00;;
72639;SDS011;60683;51.730;8.762;2022-11-15T00:42:21;11.57;;;5.38;;
72639;SDS011;60683;51.730;8.762;2022-11-15T00:44:48;13.52;;;5.75;;
72639;SDS011;60683;51.730;8.762;2022-11-15T00:47:16;12.73;;;6.70;;
72639;SDS011;60683;51.730;8.762;2022-11-15T00:49:43;9.02;;;4.82;;
72639;SDS011;60683;51.730;8.762;2022-11-15T00:52:10;11.15;;;4.68;;
72639;SDS011;60683;51.730;8.762;2022-11-15T00:54:39;11.88;;;6.22;;
72639;SDS011;60683;51.730;8.762;2022-11-15T00:57:06;11.70;;;5.80;;
72639;SDS011;60683;51.730;8.762;2022-11-15T00:59:34;12.05;;;6.45;;
72639;SDS011;60683;51.730;8.762;2022-11-15T01:02:01;10.88;;;6.00;;
72639;SDS011;60683;51.730;8.762;2022-11-15T01:04:28;12.18;;;6.60;;
72639;SDS011;60683;51.730;8.762;2022-11-15T01:06:55;11.65;;;6.55;;
72639;SDS011;60683;51.730;8.762;2022-11-15T01:09:24;11.32;;;5.82;;
72639;SDS011;60683;51.730;8.762;2022-11-15T01:11:54;11.88;;;6.03;;
72639;SDS011;60683;51.730;8.762;2022-11-15T01:14:23;14.48;;;6.25;;
72639;SDS011;60683;51.730;8.762;2022-11-15T01:16:50;11.20;;;5.75;;
72639;SDS011;60683;51.730;8.762;2022-11-15T01:19:17;10.93;;;5.78;;
72639;SDS011;60683;51.730;8.762;2022-11-15T01:21:44;12.43;;;6.45;;
72639;SDS011;60683;51.730;8.762;2022-11-15T01:24:12;13.77;;;5.90;;
72639;SDS011;60683;51.730;8.762;2022-11-15T01:26:40;13.70;;;6.32;;
72639;SDS011;60683;51.730;8.762;2022-11-15T01:29:09;10.65;;;5.78;;
72639;SDS011;60683;51.730;8.762;2022-11-15T01:31:36;10.20;;;5.78;;
72639;SDS011;60683;51.730;8.762;2022-11-15T01:34:03;12.23;;;7.30;;
72639;SDS011;60683;51.730;8.762;2022-11-15T01:36:31;14.60;;;7.07;;
72639;SDS011;60683;51.730;8.762;2022-11-15T01:38:59;13.93;;;7.00;;
72639;SDS011;60683;51.730;8.762;2022-11-15T01:41:27;12.55;;;6.45;;
72639;SDS011;60683;51.730;8.762;2022-11-15T01:48:58;13.52;;;6.82;;
72639;SDS011;60683;51.730;8.762;2022-11-15T01:51:28;13.05;;;7.25;;
72639;SDS011;60683;51.730;8.762;2022-11-15T01:53:58;12.65;;;6.88;;
72639;SDS011;60683;51.730;8.762;2022-11-15T01:56:27;14.05;;;7.53;;
72639;SDS011;60683;51.730;8.762;2022-11-15T01:58:57;16.73;;;8.38;;
72639;SDS011;60683;51.730;8.762;2022-11-15T02:01:25;15.25;;;8.68;;
72639;SDS011;60683;51.730;8.762;2022-11-15T02:03:56;14.88;;;7.35;;
72639;SDS011;60683;51.730;8.762;2022-11-15T02:06:26;17.58;;;8.48;;
72639;SDS011;60683;51.730;8.762;2022-11-15T02:08:53;15.98;;;8.95;;
72639;SDS011;60683;51.730;8.762;2022-11-15T02:11:21;19.35;;;9.00;;
72639;SDS011;60683;51.730;8.762;2022-11-15T02:13:48;15.25;;;7.40;;
72639;SDS011;60683;51.730;8.762;2022-11-15T02:16:19;16.33;;;8.00;;
72639;SDS011;60683;51.730;8.762;2022-11-15T02:18:54;16.42;;;8.40;;
72639;SDS011;60683;51.730;8.762;2022-11-15T02:21:28;17.95;;;8.50;;
72639;SDS011;60683;51.730;8.762;2022-11-15T02:24:13;16.48;;;8.98;;
72639;SDS011;60683;51.730;8.762;2022-11-15T02:27:03;14.55;;;7.38;;
72639;SDS011;60683;51.730;8.762;2022-11-15T02:29:52;20.35;;;8.05;;
72639;SDS011;60683;51.730;8.762;2022-11-15T02:32:34;18.77;;;8.70;;
72639;SDS011;60683;51.730;8.762;2022-11-15T02:35:06;19.90;;;9.45;;
72639;SDS011;60683;51.730;8.762;2022-11-15T02:37:42;17.15;;;8.68;;
72639;SDS011;60683;51.730;8.762;2022-11-15T02:40:13;14.65;;;8.20;;
72639;SDS011;60683;51.730;8.762;2022-11-15T02:42:47;19.35;;;9.10;;
72639;SDS011;60683;51.730;8.762;2022-11-15T02:45:35;13.93;;;7.32;;
72639;SDS011;60683;51.730;8.762;2022-11-15T02:48:06;16.23;;;8.38;;
72639;SDS011;60683;51.730;8.762;2022-11-15T02:50:34;19.48;;;8.63;;
72639;SDS011;60683;51.730;8.762;2022-11-15T02:53:01;17.83;;;8.10;;
72639;SDS011;60683;51.730;8.762;2022-11-15T02:55:30;15.48;;;8.48;;
72639;SDS011;60683;51.730;8.762;2022-11-15T02:58:03;16.30;;;9.27;;
72639;SDS011;60683;51.730;8.762;2022-11-15T03:00:40;19.30;;;8.00;;
72639;SDS011;60683;51.730;8.762;2022-11-15T03:03:18;16.73;;;7.93;;
72639;SDS011;60683;51.730;8.762;2022-11-15T03:05:56;16.85;;;8.35;;
72639;SDS011;60683;51.730;8.762;2022-11-15T03:08:29;15.48;;;7.97;;
72639;SDS011;60683;51.730;8.762;2022-11-15T03:11:01;16.63;;;8.18;;
72639;SDS011;60683;51.730;8.762;2022-11-15T03:13:31;18.92;;;9.15;;
72639;SDS011;60683;51.730;8.762;2022-11-15T03:16:04;15.82;;;8.98;;
72639;SDS011;60683;51.730;8.762;2022-11-15T03:18:35;17.00;;;8.65;;
72639;SDS011;60683;51.730;8.762;2022-11-15T03:21:05;15.23;;;7.70;;
72639;SDS011;60683;51.730;8.762;2022-11-15T03:23:34;20.45;;;8.95;;
72639;SDS011;60683;51.730;8.762;2022-11-15T03:26:03;14.73;;;7.93;;
72639;SDS011;60683;51.730;8.762;2022-11-15T03:28:32;15.80;;;8.43;;
72639;SDS011;60683;51.730;8.762;2022-11-15T03:31:02;12.07;;;6.72;;
72639;SDS011;60683;51.730;8.762;2022-11-15T03:33:54;18.63;;;7.22;;
72639;SDS011;60683;51.730;8.762;2022-11-15T03:36:24;14.88;;;7.38;;
72639;SDS011;60683;51.730;8.762;2022-11-15T03:38:52;14.18;;;7.68;;
72639;SDS011;60683;51.730;8.762;2022-11-15T03:41:22;16.33;;;7.45;;
72639;SDS011;60683;51.730;8.762;2022-11-15T03:43:52;16.20;;;7.90;;
72639;SDS011;60683;51.730;8.762;2022-11-15T03:46:22;14.68;;;7.60;;
72639;SDS011;60683;51.730;8.762;2022-11-15T03:48:54;13.68;;;7.90;;
72639;SDS011;60683;51.730;8.762;2022-11-15T03:51:26;16.30;;;7.80;;
72639;SDS011;60683;51.730;8.762;2022-11-15T03:53:54;15.63;;;7.97;;
72639;SDS011;60683;51.730;8.762;2022-11-15T03:56:21;15.57;;;8.20;;
72639;SDS011;60683;51.730;8.762;2022-11-15T03:58:49;15.07;;;7.72;;
72639;SDS011;60683;51.730;8.762;2022-11-15T04:01:16;14.23;;;6.85;;
72639;SDS011;60683;51.730;8.762;2022-11-15T04:03:43;15.82;;;8.10;;
72639;SDS011;60683;51.730;8.762;2022-11-15T04:06:12;17.58;;;8.32;;
72639;SDS011;60683;51.730;8.762;2022-11-15T04:08:40;14.68;;;7.75;;
72639;SDS011;60683;51.730;8.762;2022-11-15T04:11:07;13.15;;;7.43;;
72639;SDS011;60683;51.730;8.762;2022-11-15T04:13:35;14.90;;;7.32;;
72639;SDS011;60683;51.730;8.762;2022-11-15T04:16:02;14.52;;;7.03;;
72639;SDS011;60683;51.730;8.762;2022-11-15T04:18:29;15.00;;;7.00;;
72639;SDS011;60683;51.730;8.762;2022-11-15T04:20:57;14.77;;;8.25;;
72639;SDS011;60683;51.730;8.762;2022-11-15T04:23:45;16.45;;;7.97;;
72639;SDS011;60683;51.730;8.762;2022-11-15T04:26:26;13.73;;;6.63;;
72639;SDS011;60683;51.730;8.762;2022-11-15T04:28:54;13.73;;;7.07;;
72639;SDS011;60683;51.730;8.762;2022-11-15T04:31:39;10.10;;;4.97;;
72639;SDS011;60683;51.730;8.762;2022-11-15T04:34:06;12.57;;;6.80;;
72639;SDS011;60683;51.730;8.762;2022-11-15T04:36:33;12.95;;;6.90;;
72639;SDS011;60683;51.730;8.762;2022-11-15T04:39:34;13.18;;;6.47;;
72639;SDS011;60683;51.730;8.762;2022-11-15T04:42:01;11.95;;;6.65;;
72639;SDS011;60683;51.730;8.762;2022-11-15T04:44:29;13.40;;;6.55;;
72639;SDS011;60683;51.730;8.762;2022-11-15T04:46:56;12.75;;;7.22;;
72639;SDS011;60683;51.730;8.762;2022-11-15T04:49:24;14.82;;;6.60;;
72639;SDS011;60683;51.730;8.762;2022-11-15T04:51:51;11.40;;;6.53;;
72639;SDS011;60683;51.730;8.762;2022-11-15T04:54:20;13.85;;;6.15;;
72639;SDS011;60683;51.730;8.762;2022-11-15T04:56:49;12.02;;;5.43;;
72639;SDS011;60683;51.730;8.762;2022-11-15T04:59:16;9.93;;;5.82;;
72639;SDS011;60683;51.730;8.762;2022-11-15T05:01:43;11.13;;;6.03;;
72639;SDS011;60683;51.730;8.762;2022-11-15T05:04:11;10.13;;;4.30;;
72639;SDS011;60683;51.730;8.762;2022-11-15T05:06:47;10.27;;;4.65;;
72639;SDS011;60683;51.730;8.762;2022-11-15T05:09:15;10.50;;;5.85;;
72639;SDS011;60683;51.730;8.762;2022-11-15T05:11:43;8.85;;;5.60;;
72639;SDS011;60683;51.730;8.762;2022-11-15T05:14:12;9.48;;;4.90;;
72639;SDS011;60683;51.730;8.762;2022-11-15T05:16:39;11.07;;;5.80;;
72639;SDS011;60683;51.730;8.762;2022-11-15T05:19:07;9.40;;;5.28;;
72639;SDS011;60683;51.730;8.762;2022-11-15T05:21:34;10.02;;;5.20;;
72639;SDS011;60683;51.730;8.762;2022-11-15T05:24:02;10.57;;;5.95;;
72639;SDS011;60683;51.730;8.762;2022-11-15T05:26:30;8.13;;;4.40;;
72639;SDS011;60683;51.730;8.762;2022-11-15T05:28:58;10.30;;;4.78;;
72639;SDS011;60683;51.730;8.762;2022-11-15T05:31:27;9.48;;;4.95;;
72639;SDS011;60683;51.730;8.762;2022-11-15T05:33:55;9.95;;;5.13;;
72639;SDS011;60683;51.730;8.762;2022-11-15T05:36:25;12.20;;;6.72;;
72639;SDS011;60683;51.730;8.762;2022-11-15T05:38:56;12.77;;;6.90;;
72639;SDS011;60683;51.730;8.762;2022-11-15T05:41:25;14.93;;;7.43;;
72639;SDS011;60683;51.730;8.762;2022-11-15T05:46:21;15.30;;;7.03;;
72639;SDS011;60683;51.730;8.762;2022-11-15T05:48:50;15.07;;;6.75;;
72639;SDS011;60683;51.730;8.762;2022-11-15T05:51:18;15.52;;;7.05;;
72639;SDS011;60683;51.730;8.762;2022-11-15T05:53:47;14.40;;;7.22;;
72639;SDS011;60683;51.730;8.762;2022-11-15T05:56:15;12.85;;;7.25;;
72639;SDS011;60683;51.730;8.762;2022-11-15T05:58:43;14.07;;;7.20;;
72639;SDS011;60683;51.730;8.762;2022-11-15T06:01:10;11.93;;;6.20;;
72639;SDS011;60683;51.730;8.762;2022-11-15T06:03:38;12.27;;;5.80;;
72639;SDS011;60683;51.730;8.762;2022-11-15T06:06:07;13.68;;;6.40;;
72639;SDS011;60683;51.730;8.762;2022-11-15T06:08:34;14.27;;;6.15;;
72639;SDS011;60683;51.730;8.762;2022-11-15T06:11:04;13.20;;;6.38;;
72639;SDS011;60683;51.730;8.762;2022-11-15T06:13:32;10.88;;;6.18;;
72639;SDS011;60683;51.730;8.762;2022-11-15T06:16:00;11.52;;;5.43;;
72639;SDS011;60683;51.730;8.762;2022-11-15T06:18:28;13.52;;;5.53;;
72639;SDS011;60683;51.730;8.762;2022-11-15T06:20:58;11.13;;;5.85;;
72639;SDS011;60683;51.730;8.762;2022-11-15T06:25:57;12.45;;;5.45;;
72639;SDS011;60683;51.730;8.762;2022-11-15T06:28:24;10.55;;;4.55;;
72639;SDS011;60683;51.730;8.762;2022-11-15T06:30:51;12.55;;;5.75;;
72639;SDS011;60683;51.730;8.762;2022-11-15T06:33:19;10.70;;;5.85;;
72639;SDS011;60683;51.730;8.762;2022-11-15T06:35:46;9.60;;;5.68;;
72639;SDS011;60683;51.730;8.762;2022-11-15T06:38:14;10.40;;;6.07;;
72639;SDS011;60683;51.730;8.762;2022-11-15T06:40:42;11.52;;;5.00;;
72639;SDS011;60683;51.730;8.762;2022-11-15T06:43:10;10.05;;;5.70;;
72639;SDS011;60683;51.730;8.762;2022-11-15T06:45:37;9.27;;;4.68;;
72639;SDS011;60683;51.730;8.762;2022-11-15T06:48:06;9.93;;;4.85;;
72639;SDS011;60683;51.730;8.762;2022-11-15T06:50:33;10.55;;;5.57;;
72639;SDS011;60683;51.730;8.762;2022-11-15T06:53:01;9.70;;;5.28;;
72639;SDS011;60683;51.730;8.762;2022-11-15T06:55:30;9.15;;;4.55;;
72639;SDS011;60683;51.730;8.762;2022-11-15T06:57:59;9.15;;;4.70;;
72639;SDS011;60683;51.730;8.762;2022-11-15T07:00:26;11.43;;;4.93;;
72639;SDS011;60683;51.730;8.762;2022-11-15T07:02:54;7.55;;;4.03;;
72639;SDS011;60683;51.730;8.762;2022-11-15T07:05:21;8.63;;;4.93;;
72639;SDS011;60683;51.730;8.762;2022-11-15T07:07:51;9.20;;;4.38;;
72639;SDS011;60683;51.730;8.762;2022-11-15T07:10:20;9.93;;;4.95;;
72639;SDS011;60683;51.730;8.762;2022-11-15T07:12:47;10.40;;;4.55;;
72639;SDS011;60683;51.730;8.762;2022-11-15T07:15:17;9.18;;;4.38;;
72639;SDS011;60683;51.730;8.762;2022-11-15T07:17:45;8.90;;;4.25;;
72639;SDS011;60683;51.730;8.762;2022-11-15T07:20:12;9.27;;;4.90;;
72639;SDS011;60683;51.730;8.762;2022-11-15T07:22:40;10.80;;;5.03;;
72639;SDS011;60683;51.730;8.762;2022-11-15T07:25:08;8.15;;;4.60;;
72639;SDS011;60683;51.730;8.762;2022-11-15T07:27:36;8.13;;;4.60;;
72639;SDS011;60683;51.730;8.762;2022-11-15T07:30:03;8.95;;;4.35;;
72639;SDS011;60683;51.730;8.762;2022-11-15T07:32:33;10.55;;;4.22;;
72639;SDS011;60683;51.730;8.762;2022-11-15T07:35:01;9.05;;;4.20;;
72639;SDS011;60683;51.730;8.762;2022-11-15T07:37:28;8.68;;;4.28;;
72639;SDS011;60683;51.730;8.762;2022-11-15T07:39:55;7.10;;;3.85;;
72639;SDS011;60683;51.730;8.762;2022-11-15T07:42:23;8.23;;;4.05;;
72639;SDS011;60683;51.730;8.762;2022-11-15T07:45:08;8.35;;;4.13;;
72639;SDS011;60683;51.730;8.762;2022-11-15T07:47:38;8.35;;;3.85;;
72639;SDS011;60683;51.730;8.762;2022-11-15T07:50:05;7.78;;;3.90;;
72639;SDS011;60683;51.730;8.762;2022-11-15T07:52:33;6.78;;;3.60;;
72639;SDS011;60683;51.730;8.762;2022-11-15T07:55:00;8.80;;;4.20;;
72639;SDS011;60683;51.730;8.762;2022-11-15T07:57:28;8.10;;;3.40;;
72639;SDS011;60683;51.730;8.762;2022-11-15T07:59:56;7.80;;;3.53;;
72639;SDS011;60683;51.730;8.762;2022-11-15T08:02:23;10.25;;;3.53;;
72639;SDS011;60683;51.730;8.762;2022-11-15T08:04:52;8.85;;;3.58;;
72639;SDS011;60683;51.730;8.762;2022-11-15T08:07:19;6.85;;;3.67;;
72639;SDS011;60683;51.730;8.762;2022-11-15T08:13:46;5.20;;;2.13;;
72639;SDS011;60683;51.730;8.762;2022-11-15T08:16:14;6.43;;;2.65;;
72639;SDS011;60683;51.730;8.762;2022-11-15T08:18:41;4.43;;;2.00;;
72639;SDS011;60683;51.730;8.762;2022-11-15T08:21:10;5.60;;;2.22;;
72639;SDS011;60683;51.730;8.762;2022-11-15T08:23:39;6.22;;;2.92;;
72639;SDS011;60683;51.730;8.762;2022-11-15T08:26:06;7.88;;;3.38;;
72639;SDS011;60683;51.730;8.762;2022-11-15T08:28:33;7.35;;;3.70;;
72639;SDS011;60683;51.730;8.762;2022-11-15T08:31:01;7.43;;;3.55;;
72639;SDS011;60683;51.730;8.762;2022-11-15T08:33:29;6.78;;;3.35;;
72639;SDS011;60683;51.730;8.762;2022-11-15T08:35:57;8.20;;;3.42;;
72639;SDS011;60683;51.730;8.762;2022-11-15T08:38:26;6.95;;;3.90;;
72639;SDS011;60683;51.730;8.762;2022-11-15T08:40:59;5.78;;;2.72;;
72639;SDS011;60683;51.730;8.762;2022-11-15T08:43:27;8.32;;;4.50;;
72639;SDS011;60683;51.730;8.762;2022-11-15T08:45:55;9.10;;;6.22;;
72639;SDS011;60683;51.730;8.762;2022-11-15T08:48:22;8.05;;;3.70;;
72639;SDS011;60683;51.730;8.762;2022-11-15T08:50:52;8.23;;;3.50;;
72639;SDS011;60683;51.730;8.762;2022-11-15T08:53:20;7.90;;;4.28;;
72639;SDS011;60683;51.730;8.762;2022-11-15T08:55:49;6.75;;;3.42;;
72639;SDS011;60683;51.730;8.762;2022-11-15T08:58:16;6.75;;;3.83;;
72639;SDS011;60683;51.730;8.762;2022-11-15T09:00:44;6.80;;;3.40;;
72639;SDS011;60683;51.730;8.762;2022-11-15T09:03:11;6.82;;;3.42;;
72639;SDS011;60683;51.730;8.762;2022-11-15T09:05:38;5.63;;;2.60;;
72639;SDS011;60683;51.730;8.762;2022-11-15T09:08:06;7.75;;;4.53;;
72639;SDS011;60683;51.730;8.762;2022-11-15T09:10:34;7.03;;;3.70;;
72639;SDS011;60683;51.730;8.762;2022-11-15T09:13:03;8.93;;;3.10;;
72639;SDS011;60683;51.730;8.762;2022-11-15T09:15:31;6.63;;;3.30;;
72639;SDS011;60683;51.730;8.762;2022-11-15T09:17:58;6.60;;;3.42;;
72639;SDS011;60683;51.730;8.762;2022-11-15T09:20:26;8.27;;;3.15;;
72639;SDS011;60683;51.730;8.762;2022-11-15T09:22:53;3.95;;;2.25;;
72639;SDS011;60683;51.730;8.762;2022-11-15T09:25:21;4.90;;;2.38;;
72639;SDS011;60683;51.730;8.762;2022-11-15T09:27:48;4.88;;;2.28;;
72639;SDS011;60683;51.730;8.762;2022-11-15T09:30:17;5.43;;;2.45;;
72639;SDS011;60683;51.730;8.762;2022-11-15T09:32:44;5.90;;;3.03;;
72639;SDS011;60683;51.730;8.762;2022-11-15T09:35:12;6.55;;;2.42;;
72639;SDS011;60683;51.730;8.762;2022-11-15T09:37:39;5.55;;;2.78;;
72639;SDS011;60683;51.730;8.762;2022-11-15T09:40:07;6.00;;;2.72;;
72639;SDS011;60683;51.730;8.762;2022-11-15T09:42:45;6.25;;;2.92;;
72639;SDS011;60683;51.730;8.762;2022-11-15T09:45:22;8.73;;;2.45;;
72639;SDS011;60683;51.730;8.762;2022-11-15T09:47:59;5.57;;;2.70;;
72639;SDS011;60683;51.730;8.762;2022-11-15T09:50:48;4.68;;;2.17;;
72639;SDS011;60683;51.730;8.762;2022-11-15T09:53:18;6.43;;;2.15;;
72639;SDS011;60683;51.730;8.762;2022-11-15T09:55:50;5.95;;;3.25;;
72639;SDS011;60683;51.730;8.762;2022-11-15T09:58:22;3.83;;;1.80;;
72639;SDS011;60683;51.730;8.762;2022-11-15T10:00:54;3.78;;;1.60;;
72639;SDS011;60683;51.730;8.762;2022-11-15T10:03:23;3.08;;;1.23;;
72639;SDS011;60683;51.730;8.762;2022-11-15T10:05:54;6.22;;;2.70;;
72639;SDS011;60683;51.730;8.762;2022-11-15T10:08:30;4.40;;;2.40;;
72639;SDS011;60683;51.730;8.762;2022-11-15T10:11:03;4.57;;;1.70;;
72639;SDS011;60683;51.730;8.762;2022-11-15T10:13:32;3.28;;;1.55;;
72639;SDS011;60683;51.730;8.762;2022-11-15T10:16:04;3.95;;;1.48;;
72639;SDS011;60683;51.730;8.762;2022-11-15T10:18:39;4.28;;;1.85;;
72639;SDS011;60683;51.730;8.762;2022-11-15T10:21:15;4.95;;;1.70;;
72639;SDS011;60683;51.730;8.762;2022-11-15T10:23:44;3.55;;;1.52;;
72639;SDS011;60683;51.730;8.762;2022-11-15T10:26:13;3.35;;;1.23;;
72639;SDS011;60683;51.730;8.762;2022-11-15T10:28:43;4.82;;;1.58;;
72639;SDS011;60683;51.730;8.762;2022-11-15T10:31:22;4.55;;;2.10;;
72639;SDS011;60683;51.730;8.762;2022-11-15T10:33:51;3.30;;;1.27;;
72639;SDS011;60683;51.730;8.762;2022-11-15T10:36:22;3.13;;;1.38;;
72639;SDS011;60683;51.730;8.762;2022-11-15T10:38:55;2.92;;;1.30;;
72639;SDS011;60683;51.730;8.762;2022-11-15T10:41:30;4.35;;;2.17;;
72639;SDS011;60683;51.730;8.762;2022-11-15T10:44:17;9.18;;;4.80;;
72639;SDS011;60683;51.730;8.762;2022-11-15T10:47:07;3.65;;;1.88;;
72639;SDS011;60683;51.730;8.762;2022-11-15T10:49:55;6.32;;;2.03;;
72639;SDS011;60683;51.730;8.762;2022-11-15T10:52:27;5.13;;;1.38;;
72639;SDS011;60683;51.730;8.762;2022-11-15T10:54:56;4.80;;;1.58;;
72639;SDS011;60683;51.730;8.762;2022-11-15T10:57:29;4.95;;;3.72;;
72639;SDS011;60683;51.730;8.762;2022-11-15T10:59:59;6.75;;;2.10;;
72639;SDS011;60683;51.730;8.762;2022-11-15T11:02:33;2.97;;;1.40;;
72639;SDS011;60683;51.730;8.762;2022-11-15T11:05:03;3.60;;;1.80;;
72639;SDS011;60683;51.730;8.762;2022-11-15T11:07:33;1.88;;;0.80;;
72639;SDS011;60683;51.730;8.762;2022-11-15T11:10:03;4.80;;;1.65;;
72639;SDS011;60683;51.730;8.762;2022-11-15T11:12:33;4.32;;;1.70;;
72639;SDS011;60683;51.730;8.762;2022-11-15T11:15:05;3.50;;;1.30;;
72639;SDS011;60683;51.730;8.762;2022-11-15T11:17:45;1.98;;;0.93;;
72639;SDS011;60683;51.730;8.762;2022-11-15T11:20:20;2.78;;;1.05;;
72639;SDS011;60683;51.730;8.762;2022-11-15T11:22:54;2.65;;;1.15;;
72639;SDS011;60683;51.730;8.762;2022-11-15T11:25:30;3.47;;;1.00;;
72639;SDS011;60683;51.730;8.762;2022-11-15T11:28:08;3.30;;;1.00;;
72639;SDS011;60683;51.730;8.762;2022-11-15T11:30:44;5.00;;;1.25;;
72639;SDS011;60683;51.730;8.762;2022-11-15T11:33:19;2.70;;;1.15;;
72639;SDS011;60683;51.730;8.762;2022-11-15T11:35:50;2.88;;;1.02;;
72639;SDS011;60683;51.730;8.762;2022-11-15T11:38:32;2.80;;;1.33;;
72639;SDS011;60683;51.730;8.762;2022-11-15T11:41:07;2.47;;;1.08;;
72639;SDS011;60683;51.730;8.762;2022-11-15T11:43:41;3.97;;;1.40;;
72639;SDS011;60683;51.730;8.762;2022-11-15T11:49:08;4.07;;;2.55;;
72639;SDS011;60683;51.730;8.762;2022-11-15T11:51:38;4.18;;;1.40;;
72639;SDS011;60683;51.730;8.762;2022-11-15T11:54:11;3.50;;;1.23;;
72639;SDS011;60683;51.730;8.762;2022-11-15T11:56:41;4.47;;;1.45;;
72639;SDS011;60683;51.730;8.762;2022-11-15T11:59:14;3.80;;;2.00;;
72639;SDS011;60683;51.730;8.762;2022-11-15T12:01:44;3.85;;;1.70;;
72639;SDS011;60683;51.730;8.762;2022-11-15T12:04:16;3.95;;;1.73;;
72639;SDS011;60683;51.730;8.762;2022-11-15T12:06:47;6.03;;;1.80;;
72639;SDS011;60683;51.730;8.762;2022-11-15T12:09:19;4.82;;;1.80;;
72639;SDS011;60683;51.730;8.762;2022-11-15T12:11:50;4.13;;;1.50;;
72639;SDS011;60683;51.730;8.762;2022-11-15T12:14:24;4.85;;;1.70;;
72639;SDS011;60683;51.730;8.762;2022-11-15T12:16:56;3.53;;;1.60;;
72639;SDS011;60683;51.730;8.762;2022-11-15T12:19:25;3.22;;;1.48;;
72639;SDS011;60683;51.730;8.762;2022-11-15T12:21:55;3.90;;;1.52;;
72639;SDS011;60683;51.730;8.762;2022-11-15T12:24:29;3.90;;;1.85;;
72639;SDS011;60683;51.730;8.762;2022-11-15T12:27:00;5.93;;;1.90;;
72639;SDS011;60683;51.730;8.762;2022-11-15T12:29:31;3.08;;;1.25;;
72639;SDS011;60683;51.730;8.762;2022-11-15T12:32:02;4.78;;;1.98;;
72639;SDS011;60683;51.730;8.762;2022-11-15T12:34:39;4.80;;;2.22;;
72639;SDS011;60683;51.730;8.762;2022-11-15T12:40:17;3.60;;;1.90;;
72639;SDS011;60683;51.730;8.762;2022-11-15T12:42:57;4.25;;;1.52;;
72639;SDS011;60683;51.730;8.762;2022-11-15T12:45:36;3.92;;;1.95;;
72639;SDS011;60683;51.730;8.762;2022-11-15T12:52:03;3.58;;;1.58;;
72639;SDS011;60683;51.730;8.762;2022-11-15T12:57:25;4.93;;;1.80;;
72639;SDS011;60683;51.730;8.762;2022-11-15T12:59:56;3.33;;;1.60;;
72639;SDS011;60683;51.730;8.762;2022-11-15T13:02:28;3.28;;;1.60;;
72639;SDS011;60683;51.730;8.762;2022-11-15T13:07:58;3.42;;;1.80;;
72639;SDS011;60683;51.730;8.762;2022-11-15T13:10:29;3.55;;;1.38;;
72639;SDS011;60683;51.730;8.762;2022-11-15T13:12:58;3.53;;;1.77;;
72639;SDS011;60683;51.730;8.762;2022-11-15T13:15:36;3.50;;;1.75;;
72639;SDS011;60683;51.730;8.762;2022-11-15T13:21:01;4.22;;;1.95;;
72639;SDS011;60683;51.730;8.762;2022-11-15T13:23:54;4.00;;;1.23;;
72639;SDS011;60683;51.730;8.762;2022-11-15T13:26:21;3.00;;;1.40;;
72639;SDS011;60683;51.730;8.762;2022-11-15T13:28:49;2.88;;;1.50;;
72639;SDS011;60683;51.730;8.762;2022-11-15T13:31:30;4.28;;;1.30;;
72639;SDS011;60683;51.730;8.762;2022-11-15T13:34:02;2.55;;;1.42;;
72639;SDS011;60683;51.730;8.762;2022-11-15T13:36:40;4.00;;;1.42;;
72639;SDS011;60683;51.730;8.762;2022-11-15T13:39:14;3.55;;;1.20;;
72639;SDS011;60683;51.730;8.762;2022-11-15T13:41:50;3.53;;;1.67;;
72639;SDS011;60683;51.730;8.762;2022-11-15T13:44:19;3.55;;;1.40;;
72639;SDS011;60683;51.730;8.762;2022-11-15T13:46:47;2.53;;;1.20;;
72639;SDS011;60683;51.730;8.762;2022-11-15T13:49:15;4.22;;;1.58;;
72639;SDS011;60683;51.730;8.762;2022-11-15T13:51:43;3.65;;;1.30;;
72639;SDS011;60683;51.730;8.762;2022-11-15T13:54:16;2.75;;;1.30;;
72639;SDS011;60683;51.730;8.762;2022-11-15T13:56:47;3.85;;;1.27;;
72639;SDS011;60683;51.730;8.762;2022-11-15T13:59:19;3.55;;;1.60;;
72639;SDS011;60683;51.730;8.762;2022-11-15T14:01:51;3.70;;;1.35;;
72639;SDS011;60683;51.730;8.762;2022-11-15T14:04:22;7.45;;;3.00;;
72639;SDS011;60683;51.730;8.762;2022-11-15T14:06:51;7.95;;;6.18;;
72639;SDS011;60683;51.730;8.762;2022-11-15T14:12:26;4.15;;;2.00;;
72639;SDS011;60683;51.730;8.762;2022-11-15T14:14:56;13.60;;;6.85;;
72639;SDS011;60683;51.730;8.762;2022-11-15T14:17:34;3.55;;;1.60;;
72639;SDS011;60683;51.730;8.762;2022-11-15T14:22:56;6.38;;;2.95;;
72639;SDS011;60683;51.730;8.762;2022-11-15T14:25:27;5.15;;;2.25;;
72639;SDS011;60683;51.730;8.762;2022-11-15T14:30:56;6.60;;;3.05;;
72639;SDS011;60683;51.730;8.762;2022-11-15T14:33:25;4.15;;;1.50;;
72639;SDS011;60683;51.730;8.762;2022-11-15T14:35:56;4.05;;;2.10;;
72639;SDS011;60683;51.730;8.762;2022-11-15T14:38:25;3.30;;;1.73;;
72639;SDS011;60683;51.730;8.762;2022-11-15T14:40:54;5.03;;;2.53;;
72639;SDS011;60683;51.730;8.762;2022-11-15T14:43:22;3.55;;;1.45;;
72639;SDS011;60683;51.730;8.762;2022-11-15T14:45:50;12.40;;;7.63;;
72639;SDS011;60683;51.730;8.762;2022-11-15T14:48:17;3.88;;;1.83;;
72639;SDS011;60683;51.730;8.762;2022-11-15T14:50:44;6.60;;;2.10;;
72639;SDS011;60683;51.730;8.762;2022-11-15T14:53:12;5.53;;;2.50;;
72639;SDS011;60683;51.730;8.762;2022-11-15T14:58:11;7.03;;;3.55;;
72639;SDS011;60683;51.730;8.762;2022-11-15T15:00:39;4.45;;;1.73;;
72639;SDS011;60683;51.730;8.762;2022-11-15T15:03:07;4.00;;;1.60;;
72639;SDS011;60683;51.730;8.762;2022-11-15T15:05:36;3.67;;;1.70;;
72639;SDS011;60683;51.730;8.762;2022-11-15T15:08:05;4.95;;;1.92;;
72639;SDS011;60683;51.730;8.762;2022-11-15T15:10:33;7.53;;;3.45;;
72639;SDS011;60683;51.730;8.762;2022-11-15T15:13:02;6.95;;;3.10;;
72639;SDS011;60683;51.730;8.762;2022-11-15T15:15:31;6.47;;;2.33;;
72639;SDS011;60683;51.730;8.762;2022-11-15T15:18:00;4.80;;;1.20;;
72639;SDS011;60683;51.730;8.762;2022-11-15T15:20:28;5.43;;;2.60;;
72639;SDS011;60683;51.730;8.762;2022-11-15T15:22:55;4.47;;;2.00;;
72639;SDS011;60683;51.730;8.762;2022-11-15T15:25:24;6.28;;;2.90;;
72639;SDS011;60683;51.730;8.762;2022-11-15T15:27:54;6.03;;;2.80;;
72639;SDS011;60683;51.730;8.762;2022-11-15T15:30:22;4.72;;;1.77;;
72639;SDS011;60683;51.730;8.762;2022-11-15T15:32:51;2.42;;;1.20;;
72639;SDS011;60683;51.730;8.762;2022-11-15T15:35:19;4.72;;;2.10;;
72639;SDS011;60683;51.730;8.762;2022-11-15T15:37:47;4.38;;;1.67;;
72639;SDS011;60683;51.730;8.762;2022-11-15T15:40:16;4.13;;;1.77;;
72639;SDS011;60683;51.730;8.762;2022-11-15T15:42:45;5.72;;;2.45;;
72639;SDS011;60683;51.730;8.762;2022-11-15T15:45:13;3.58;;;1.60;;